sensor_id;sensor_type;location;lat;lon;timestamp;P1;durP1;ratioP1;P2;durP2;ratioP2
22072;SDS011;11202;50.916;4.698;2022-11-25T00:00:24;13.57;;;3.00;;
22072;SDS011;11202;50.916;4.698;2022-11-25T00:02:49;17.13;;;3.17;;
22072;SDS011;11202;50.916;4.698;2022-11-25T00:05:15;23.23;;;3.40;;
22072;SDS011;11202;50.916;4.698;2022-11-25T00:07:41;13.95;;;2.88;;
22072;SDS011;11202;50.916;4.698;2022-11-25T00:10:08;17.65;;;3.35;;
22072;SDS011;11202;50.916;4.698;2022-11-25T00:12:34;13.45;;;2.92;;
22072;SDS011;11202;50.916;4.698;2022-11-25T00:15:00;16.85;;;3.40;;
22072;SDS011;11202;50.916;4.698;2022-11-25T00:17:26;17.38;;;3.00;;
22072;SDS011;11202;50.916;4.698;2022-11-25T00:19:51;13.90;;;3.42;;
22072;SDS011;11202;50.916;4.698;2022-11-25T00:22:17;17.70;;;3.97;;
22072;SDS011;11202;50.916;4.698;2022-11-25T00:24:42;18.50;;;4.10;;
22072;SDS011;11202;50.916;4.698;2022-11-25T00:27:08;18.05;;;3.92;;
22072;SDS011;11202;50.916;4.698;2022-11-25T00:29:34;12.88;;;3.10;;
22072;SDS011;11202;50.916;4.698;2022-11-25T00:31:59;17.83;;;4.43;;
22072;SDS011;11202;50.916;4.698;2022-11-25T00:34:25;21.98;;;3.78;;
22072;SDS011;11202;50.916;4.698;2022-11-25T00:36:53;21.27;;;3.33;;
22072;SDS011;11202;50.916;4.698;2022-11-25T00:39:19;17.52;;;3.17;;
22072;SDS011;11202;50.916;4.698;2022-11-25T00:41:48;15.37;;;2.73;;
22072;SDS011;11202;50.916;4.698;2022-11-25T00:44:32;14.35;;;2.80;;
22072;SDS011;11202;50.916;4.698;2022-11-25T00:47:01;16.10;;;3.22;;
22072;SDS011;11202;50.916;4.698;2022-11-25T00:49:30;19.77;;;3.45;;
22072;SDS011;11202;50.916;4.698;2022-11-25T00:51:57;28.15;;;3.40;;
22072;SDS011;11202;50.916;4.698;2022-11-25T00:54:22;20.85;;;3.53;;
22072;SDS011;11202;50.916;4.698;2022-11-25T00:56:49;16.17;;;2.70;;
22072;SDS011;11202;50.916;4.698;2022-11-25T00:59:14;13.75;;;3.50;;
22072;SDS011;11202;50.916;4.698;2022-11-25T01:01:40;20.52;;;3.53;;
22072;SDS011;11202;50.916;4.698;2022-11-25T01:04:06;17.55;;;3.05;;
22072;SDS011;11202;50.916;4.698;2022-11-25T01:06:32;18.23;;;3.25;;
22072;SDS011;11202;50.916;4.698;2022-11-25T01:08:58;16.95;;;3.00;;
22072;SDS011;11202;50.916;4.698;2022-11-25T01:11:24;18.27;;;3.42;;
22072;SDS011;11202;50.916;4.698;2022-11-25T01:13:50;12.50;;;1.67;;
22072;SDS011;11202;50.916;4.698;2022-11-25T01:16:19;9.90;;;1.35;;
22072;SDS011;11202;50.916;4.698;2022-11-25T01:18:45;4.13;;;1.15;;
22072;SDS011;11202;50.916;4.698;2022-11-25T01:21:14;7.55;;;1.40;;
22072;SDS011;11202;50.916;4.698;2022-11-25T01:23:43;11.70;;;1.77;;
22072;SDS011;11202;50.916;4.698;2022-11-25T01:26:10;7.13;;;1.70;;
22072;SDS011;11202;50.916;4.698;2022-11-25T01:28:38;7.93;;;1.35;;
22072;SDS011;11202;50.916;4.698;2022-11-25T01:31:06;6.57;;;1.60;;
22072;SDS011;11202;50.916;4.698;2022-11-25T01:36:04;8.15;;;1.70;;
22072;SDS011;11202;50.916;4.698;2022-11-25T01:38:32;7.90;;;1.25;;
22072;SDS011;11202;50.916;4.698;2022-11-25T01:40:58;4.43;;;1.10;;
22072;SDS011;11202;50.916;4.698;2022-11-25T01:43:25;4.80;;;1.25;;
22072;SDS011;11202;50.916;4.698;2022-11-25T01:45:52;10.10;;;1.35;;
22072;SDS011;11202;50.916;4.698;2022-11-25T01:49:02;5.88;;;1.08;;
22072;SDS011;11202;50.916;4.698;2022-11-25T01:51:33;2.42;;;0.70;;
22072;SDS011;11202;50.916;4.698;2022-11-25T01:54:16;6.97;;;1.42;;
22072;SDS011;11202;50.916;4.698;2022-11-25T01:56:52;4.70;;;0.95;;
22072;SDS011;11202;50.916;4.698;2022-11-25T01:59:21;5.07;;;1.30;;
22072;SDS011;11202;50.916;4.698;2022-11-25T02:01:47;5.63;;;1.23;;
22072;SDS011;11202;50.916;4.698;2022-11-25T02:04:14;5.55;;;1.00;;
22072;SDS011;11202;50.916;4.698;2022-11-25T02:06:44;6.95;;;1.50;;
22072;SDS011;11202;50.916;4.698;2022-11-25T02:09:23;4.82;;;1.27;;
22072;SDS011;11202;50.916;4.698;2022-11-25T02:11:51;3.45;;;1.10;;
22072;SDS011;11202;50.916;4.698;2022-11-25T02:14:17;5.93;;;0.98;;
22072;SDS011;11202;50.916;4.698;2022-11-25T02:16:45;5.32;;;1.10;;
22072;SDS011;11202;50.916;4.698;2022-11-25T02:19:15;2.60;;;1.00;;
22072;SDS011;11202;50.916;4.698;2022-11-25T02:21:50;6.50;;;1.40;;
22072;SDS011;11202;50.916;4.698;2022-11-25T02:24:29;5.05;;;1.02;;
22072;SDS011;11202;50.916;4.698;2022-11-25T02:27:01;5.90;;;1.30;;
22072;SDS011;11202;50.916;4.698;2022-11-25T02:29:27;4.07;;;1.10;;
22072;SDS011;11202;50.916;4.698;2022-11-25T02:31:53;4.30;;;1.20;;
22072;SDS011;11202;50.916;4.698;2022-11-25T02:34:18;4.82;;;1.63;;
22072;SDS011;11202;50.916;4.698;2022-11-25T02:36:44;4.30;;;0.95;;
22072;SDS011;11202;50.916;4.698;2022-11-25T02:39:09;5.55;;;1.23;;
22072;SDS011;11202;50.916;4.698;2022-11-25T02:41:38;7.68;;;1.10;;
22072;SDS011;11202;50.916;4.698;2022-11-25T02:44:07;4.82;;;1.25;;
22072;SDS011;11202;50.916;4.698;2022-11-25T02:46:33;2.38;;;0.80;;
22072;SDS011;11202;50.916;4.698;2022-11-25T02:48:59;3.15;;;1.00;;
22072;SDS011;11202;50.916;4.698;2022-11-25T02:51:27;4.10;;;1.10;;
22072;SDS011;11202;50.916;4.698;2022-11-25T02:53:54;3.63;;;1.13;;
22072;SDS011;11202;50.916;4.698;2022-11-25T02:56:24;3.60;;;1.13;;
22072;SDS011;11202;50.916;4.698;2022-11-25T02:58:52;3.20;;;1.00;;
22072;SDS011;11202;50.916;4.698;2022-11-25T03:01:20;3.38;;;0.80;;
22072;SDS011;11202;50.916;4.698;2022-11-25T03:03:46;7.72;;;1.42;;
22072;SDS011;11202;50.916;4.698;2022-11-25T03:06:11;3.13;;;1.10;;
22072;SDS011;11202;50.916;4.698;2022-11-25T03:08:37;3.45;;;1.02;;
22072;SDS011;11202;50.916;4.698;2022-11-25T03:11:03;9.02;;;1.20;;
22072;SDS011;11202;50.916;4.698;2022-11-25T03:13:29;1.63;;;0.77;;
22072;SDS011;11202;50.916;4.698;2022-11-25T03:15:57;5.28;;;0.90;;
22072;SDS011;11202;50.916;4.698;2022-11-25T03:18:25;5.68;;;1.38;;
22072;SDS011;11202;50.916;4.698;2022-11-25T03:20:54;5.45;;;1.30;;
22072;SDS011;11202;50.916;4.698;2022-11-25T03:23:20;1.83;;;1.00;;
22072;SDS011;11202;50.916;4.698;2022-11-25T03:25:46;3.88;;;1.20;;
22072;SDS011;11202;50.916;4.698;2022-11-25T03:28:12;4.15;;;1.10;;
22072;SDS011;11202;50.916;4.698;2022-11-25T03:30:40;5.45;;;1.30;;
22072;SDS011;11202;50.916;4.698;2022-11-25T03:33:07;7.65;;;1.90;;
22072;SDS011;11202;50.916;4.698;2022-11-25T03:35:32;6.03;;;1.27;;
22072;SDS011;11202;50.916;4.698;2022-11-25T03:38:00;5.15;;;1.30;;
22072;SDS011;11202;50.916;4.698;2022-11-25T03:40:26;6.18;;;1.50;;
22072;SDS011;11202;50.916;4.698;2022-11-25T03:42:52;6.18;;;1.50;;
22072;SDS011;11202;50.916;4.698;2022-11-25T03:45:17;10.45;;;1.80;;
22072;SDS011;11202;50.916;4.698;2022-11-25T03:47:43;6.82;;;1.67;;
22072;SDS011;11202;50.916;4.698;2022-11-25T03:50:10;12.02;;;1.70;;
22072;SDS011;11202;50.916;4.698;2022-11-25T03:52:37;9.63;;;2.33;;
22072;SDS011;11202;50.916;4.698;2022-11-25T03:55:04;12.52;;;2.17;;
22072;SDS011;11202;50.916;4.698;2022-11-25T03:57:31;7.32;;;1.98;;
22072;SDS011;11202;50.916;4.698;2022-11-25T03:59:57;7.78;;;2.15;;
22072;SDS011;11202;50.916;4.698;2022-11-25T04:02:25;7.93;;;2.10;;
22072;SDS011;11202;50.916;4.698;2022-11-25T04:04:53;8.55;;;2.60;;
22072;SDS011;11202;50.916;4.698;2022-11-25T04:07:19;8.23;;;2.10;;
22072;SDS011;11202;50.916;4.698;2022-11-25T04:09:45;8.70;;;2.30;;
22072;SDS011;11202;50.916;4.698;2022-11-25T04:12:10;12.05;;;2.55;;
22072;SDS011;11202;50.916;4.698;2022-11-25T04:14:55;16.75;;;3.08;;
22072;SDS011;11202;50.916;4.698;2022-11-25T04:17:20;12.02;;;2.58;;
22072;SDS011;11202;50.916;4.698;2022-11-25T04:19:46;11.93;;;2.47;;
22072;SDS011;11202;50.916;4.698;2022-11-25T04:22:11;15.48;;;2.90;;
22072;SDS011;11202;50.916;4.698;2022-11-25T04:24:37;12.13;;;2.78;;
22072;SDS011;11202;50.916;4.698;2022-11-25T04:27:03;13.63;;;2.90;;
22072;SDS011;11202;50.916;4.698;2022-11-25T04:29:28;12.32;;;3.10;;
22072;SDS011;11202;50.916;4.698;2022-11-25T04:31:54;12.05;;;2.65;;
22072;SDS011;11202;50.916;4.698;2022-11-25T04:34:21;14.15;;;2.90;;
22072;SDS011;11202;50.916;4.698;2022-11-25T04:36:48;14.57;;;3.70;;
22072;SDS011;11202;50.916;4.698;2022-11-25T04:39:16;16.38;;;3.20;;
22072;SDS011;11202;50.916;4.698;2022-11-25T04:41:45;14.02;;;3.30;;
22072;SDS011;11202;50.916;4.698;2022-11-25T04:44:11;8.23;;;3.00;;
22072;SDS011;11202;50.916;4.698;2022-11-25T04:46:39;13.52;;;3.50;;
22072;SDS011;11202;50.916;4.698;2022-11-25T04:49:06;19.15;;;3.72;;
22072;SDS011;11202;50.916;4.698;2022-11-25T04:51:32;15.88;;;3.50;;
22072;SDS011;11202;50.916;4.698;2022-11-25T04:54:00;16.17;;;3.55;;
22072;SDS011;11202;50.916;4.698;2022-11-25T04:56:26;17.35;;;3.15;;
22072;SDS011;11202;50.916;4.698;2022-11-25T04:58:51;12.55;;;3.10;;
22072;SDS011;11202;50.916;4.698;2022-11-25T05:01:38;11.75;;;2.88;;
22072;SDS011;11202;50.916;4.698;2022-11-25T05:04:06;14.68;;;3.17;;
22072;SDS011;11202;50.916;4.698;2022-11-25T05:06:32;15.85;;;3.13;;
22072;SDS011;11202;50.916;4.698;2022-11-25T05:08:57;12.07;;;3.55;;
22072;SDS011;11202;50.916;4.698;2022-11-25T05:11:25;12.38;;;3.50;;
22072;SDS011;11202;50.916;4.698;2022-11-25T05:13:53;12.00;;;3.85;;
22072;SDS011;11202;50.916;4.698;2022-11-25T05:16:18;16.80;;;4.03;;
22072;SDS011;11202;50.916;4.698;2022-11-25T05:18:44;11.07;;;2.70;;
22072;SDS011;11202;50.916;4.698;2022-11-25T05:21:10;15.43;;;3.42;;
22072;SDS011;11202;50.916;4.698;2022-11-25T05:23:35;22.58;;;3.95;;
22072;SDS011;11202;50.916;4.698;2022-11-25T05:26:01;14.25;;;3.53;;
22072;SDS011;11202;50.916;4.698;2022-11-25T05:28:28;15.38;;;3.80;;
22072;SDS011;11202;50.916;4.698;2022-11-25T05:30:54;15.18;;;3.40;;
22072;SDS011;11202;50.916;4.698;2022-11-25T05:33:21;15.18;;;3.92;;
22072;SDS011;11202;50.916;4.698;2022-11-25T05:35:56;15.82;;;3.47;;
22072;SDS011;11202;50.916;4.698;2022-11-25T05:38:23;15.20;;;3.15;;
22072;SDS011;11202;50.916;4.698;2022-11-25T05:40:49;13.90;;;3.38;;
22072;SDS011;11202;50.916;4.698;2022-11-25T05:43:15;11.70;;;2.78;;
22072;SDS011;11202;50.916;4.698;2022-11-25T05:45:41;22.63;;;3.47;;
22072;SDS011;11202;50.916;4.698;2022-11-25T05:48:06;16.58;;;3.72;;
22072;SDS011;11202;50.916;4.698;2022-11-25T05:50:32;11.32;;;2.90;;
22072;SDS011;11202;50.916;4.698;2022-11-25T05:52:58;12.73;;;3.22;;
22072;SDS011;11202;50.916;4.698;2022-11-25T05:55:23;12.88;;;3.10;;
22072;SDS011;11202;50.916;4.698;2022-11-25T05:57:49;19.25;;;3.25;;
22072;SDS011;11202;50.916;4.698;2022-11-25T06:00:17;14.52;;;3.17;;
22072;SDS011;11202;50.916;4.698;2022-11-25T06:02:48;14.05;;;3.22;;
22072;SDS011;11202;50.916;4.698;2022-11-25T06:05:14;13.15;;;3.33;;
22072;SDS011;11202;50.916;4.698;2022-11-25T06:07:40;12.02;;;3.30;;
22072;SDS011;11202;50.916;4.698;2022-11-25T06:10:05;13.07;;;3.45;;
22072;SDS011;11202;50.916;4.698;2022-11-25T06:12:32;11.82;;;3.30;;
22072;SDS011;11202;50.916;4.698;2022-11-25T06:14:57;15.80;;;3.13;;
22072;SDS011;11202;50.916;4.698;2022-11-25T06:17:25;17.85;;;3.10;;
22072;SDS011;11202;50.916;4.698;2022-11-25T06:19:51;10.80;;;3.17;;
22072;SDS011;11202;50.916;4.698;2022-11-25T06:22:16;14.23;;;2.83;;
22072;SDS011;11202;50.916;4.698;2022-11-25T06:24:42;11.95;;;2.90;;
22072;SDS011;11202;50.916;4.698;2022-11-25T06:27:08;11.85;;;2.75;;
22072;SDS011;11202;50.916;4.698;2022-11-25T06:29:33;19.38;;;3.17;;
22072;SDS011;11202;50.916;4.698;2022-11-25T06:32:00;10.43;;;2.63;;
22072;SDS011;11202;50.916;4.698;2022-11-25T06:34:26;13.25;;;3.20;;
22072;SDS011;11202;50.916;4.698;2022-11-25T06:36:53;13.95;;;3.15;;
22072;SDS011;11202;50.916;4.698;2022-11-25T06:39:23;13.00;;;3.60;;
22072;SDS011;11202;50.916;4.698;2022-11-25T06:41:51;12.30;;;3.05;;
22072;SDS011;11202;50.916;4.698;2022-11-25T06:44:19;15.07;;;3.80;;
22072;SDS011;11202;50.916;4.698;2022-11-25T06:46:45;20.80;;;9.75;;
22072;SDS011;11202;50.916;4.698;2022-11-25T06:49:10;23.50;;;9.45;;
22072;SDS011;11202;50.916;4.698;2022-11-25T06:51:36;15.02;;;4.43;;
22072;SDS011;11202;50.916;4.698;2022-11-25T06:54:01;13.30;;;3.88;;
22072;SDS011;11202;50.916;4.698;2022-11-25T06:56:27;18.35;;;3.30;;
22072;SDS011;11202;50.916;4.698;2022-11-25T06:58:53;16.25;;;3.25;;
22072;SDS011;11202;50.916;4.698;2022-11-25T07:03:48;13.50;;;3.60;;
22072;SDS011;11202;50.916;4.698;2022-11-25T07:06:16;15.30;;;3.55;;
22072;SDS011;11202;50.916;4.698;2022-11-25T07:08:42;12.85;;;3.25;;
22072;SDS011;11202;50.916;4.698;2022-11-25T07:11:18;14.52;;;3.65;;
22072;SDS011;11202;50.916;4.698;2022-11-25T07:13:46;18.80;;;4.68;;
22072;SDS011;11202;50.916;4.698;2022-11-25T07:16:13;12.18;;;4.10;;
22072;SDS011;11202;50.916;4.698;2022-11-25T07:18:41;22.67;;;4.20;;
22072;SDS011;11202;50.916;4.698;2022-11-25T07:21:13;15.43;;;4.15;;
22072;SDS011;11202;50.916;4.698;2022-11-25T07:23:43;15.43;;;3.78;;
22072;SDS011;11202;50.916;4.698;2022-11-25T07:26:10;15.73;;;3.83;;
22072;SDS011;11202;50.916;4.698;2022-11-25T07:28:40;15.88;;;4.45;;
22072;SDS011;11202;50.916;4.698;2022-11-25T07:31:12;21.30;;;4.35;;
22072;SDS011;11202;50.916;4.698;2022-11-25T07:34:05;14.02;;;3.40;;
22072;SDS011;11202;50.916;4.698;2022-11-25T07:36:38;25.60;;;3.70;;
22072;SDS011;11202;50.916;4.698;2022-11-25T07:39:05;20.55;;;4.30;;
22072;SDS011;11202;50.916;4.698;2022-11-25T07:41:32;14.98;;;3.50;;
22072;SDS011;11202;50.916;4.698;2022-11-25T07:44:00;14.80;;;4.28;;
22072;SDS011;11202;50.916;4.698;2022-11-25T07:46:34;18.17;;;4.18;;
22072;SDS011;11202;50.916;4.698;2022-11-25T07:49:03;20.83;;;5.18;;
22072;SDS011;11202;50.916;4.698;2022-11-25T07:51:31;18.98;;;4.45;;
22072;SDS011;11202;50.916;4.698;2022-11-25T07:54:09;19.45;;;3.65;;
22072;SDS011;11202;50.916;4.698;2022-11-25T07:56:39;15.52;;;3.97;;
22072;SDS011;11202;50.916;4.698;2022-11-25T07:59:06;22.60;;;4.63;;
22072;SDS011;11202;50.916;4.698;2022-11-25T08:01:37;20.73;;;4.55;;
22072;SDS011;11202;50.916;4.698;2022-11-25T08:04:03;23.27;;;4.82;;
22072;SDS011;11202;50.916;4.698;2022-11-25T08:06:30;16.63;;;4.20;;
22072;SDS011;11202;50.916;4.698;2022-11-25T08:08:56;26.48;;;4.65;;
22072;SDS011;11202;50.916;4.698;2022-11-25T08:11:23;15.65;;;4.10;;
22072;SDS011;11202;50.916;4.698;2022-11-25T08:13:51;21.55;;;3.63;;
22072;SDS011;11202;50.916;4.698;2022-11-25T08:16:17;16.92;;;3.95;;
22072;SDS011;11202;50.916;4.698;2022-11-25T08:18:44;15.38;;;3.60;;
22072;SDS011;11202;50.916;4.698;2022-11-25T08:21:11;18.20;;;3.78;;
22072;SDS011;11202;50.916;4.698;2022-11-25T08:23:38;21.30;;;3.55;;
22072;SDS011;11202;50.916;4.698;2022-11-25T08:26:05;17.25;;;3.78;;
22072;SDS011;11202;50.916;4.698;2022-11-25T08:28:33;18.77;;;3.70;;
22072;SDS011;11202;50.916;4.698;2022-11-25T08:31:06;16.48;;;4.00;;
22072;SDS011;11202;50.916;4.698;2022-11-25T08:33:34;14.73;;;3.60;;
22072;SDS011;11202;50.916;4.698;2022-11-25T08:36:00;12.23;;;3.20;;
22072;SDS011;11202;50.916;4.698;2022-11-25T08:38:27;14.70;;;3.33;;
22072;SDS011;11202;50.916;4.698;2022-11-25T08:40:55;15.25;;;2.90;;
22072;SDS011;11202;50.916;4.698;2022-11-25T08:43:24;13.23;;;2.65;;
22072;SDS011;11202;50.916;4.698;2022-11-25T08:45:53;53.10;;;4.97;;
22072;SDS011;11202;50.916;4.698;2022-11-25T08:48:19;12.23;;;2.88;;
22072;SDS011;11202;50.916;4.698;2022-11-25T08:50:49;17.40;;;2.65;;
22072;SDS011;11202;50.916;4.698;2022-11-25T08:53:17;14.82;;;3.17;;
22072;SDS011;11202;50.916;4.698;2022-11-25T08:55:43;13.82;;;3.40;;
22072;SDS011;11202;50.916;4.698;2022-11-25T08:58:08;15.88;;;3.50;;
22072;SDS011;11202;50.916;4.698;2022-11-25T09:00:36;13.70;;;3.47;;
22072;SDS011;11202;50.916;4.698;2022-11-25T09:03:02;23.80;;;4.80;;
22072;SDS011;11202;50.916;4.698;2022-11-25T09:05:28;21.88;;;4.10;;
22072;SDS011;11202;50.916;4.698;2022-11-25T09:08:02;22.05;;;4.00;;
22072;SDS011;11202;50.916;4.698;2022-11-25T09:10:29;12.23;;;4.00;;
22072;SDS011;11202;50.916;4.698;2022-11-25T09:12:55;17.73;;;3.83;;
22072;SDS011;11202;50.916;4.698;2022-11-25T09:15:21;13.65;;;4.40;;
22072;SDS011;11202;50.916;4.698;2022-11-25T09:17:56;15.88;;;4.25;;
22072;SDS011;11202;50.916;4.698;2022-11-25T09:20:22;12.68;;;3.60;;
22072;SDS011;11202;50.916;4.698;2022-11-25T09:22:48;14.90;;;3.60;;
22072;SDS011;11202;50.916;4.698;2022-11-25T09:25:13;12.27;;;3.53;;
22072;SDS011;11202;50.916;4.698;2022-11-25T09:27:39;20.92;;;3.97;;
22072;SDS011;11202;50.916;4.698;2022-11-25T09:30:05;11.13;;;3.63;;
22072;SDS011;11202;50.916;4.698;2022-11-25T09:32:32;13.40;;;3.33;;
22072;SDS011;11202;50.916;4.698;2022-11-25T09:34:57;12.48;;;3.22;;
22072;SDS011;11202;50.916;4.698;2022-11-25T09:37:23;8.85;;;2.88;;
22072;SDS011;11202;50.916;4.698;2022-11-25T09:39:48;13.23;;;2.80;;
22072;SDS011;11202;50.916;4.698;2022-11-25T09:45:45;14.48;;;3.03;;
22072;SDS011;11202;50.916;4.698;2022-11-25T09:51:21;12.57;;;1.98;;
22072;SDS011;11202;50.916;4.698;2022-11-25T09:53:55;8.07;;;2.10;;
22072;SDS011;11202;50.916;4.698;2022-11-25T09:56:32;7.50;;;2.13;;
22072;SDS011;11202;50.916;4.698;2022-11-25T09:59:04;7.60;;;1.90;;
22072;SDS011;11202;50.916;4.698;2022-11-25T10:01:31;12.18;;;2.35;;
22072;SDS011;11202;50.916;4.698;2022-11-25T10:04:11;8.35;;;1.88;;
22072;SDS011;11202;50.916;4.698;2022-11-25T10:06:46;6.40;;;1.50;;
22072;SDS011;11202;50.916;4.698;2022-11-25T10:09:16;9.55;;;2.65;;
22072;SDS011;11202;50.916;4.698;2022-11-25T10:11:50;8.77;;;2.90;;
22072;SDS011;11202;50.916;4.698;2022-11-25T10:16:56;8.27;;;1.80;;
22072;SDS011;11202;50.916;4.698;2022-11-25T10:19:39;10.90;;;2.00;;
22072;SDS011;11202;50.916;4.698;2022-11-25T10:22:20;4.65;;;1.55;;
22072;SDS011;11202;50.916;4.698;2022-11-25T10:24:50;4.85;;;1.30;;
22072;SDS011;11202;50.916;4.698;2022-11-25T10:27:22;4.47;;;1.40;;
22072;SDS011;11202;50.916;4.698;2022-11-25T10:30:02;7.70;;;1.70;;
22072;SDS011;11202;50.916;4.698;2022-11-25T10:32:40;7.85;;;1.88;;
22072;SDS011;11202;50.916;4.698;2022-11-25T10:35:21;9.65;;;1.40;;
22072;SDS011;11202;50.916;4.698;2022-11-25T10:37:52;5.90;;;1.40;;
22072;SDS011;11202;50.916;4.698;2022-11-25T10:40:20;2.60;;;0.95;;
22072;SDS011;11202;50.916;4.698;2022-11-25T10:42:46;6.15;;;1.58;;
22072;SDS011;11202;50.916;4.698;2022-11-25T10:45:12;3.45;;;1.10;;
22072;SDS011;11202;50.916;4.698;2022-11-25T10:53:12;7.20;;;1.60;;
22072;SDS011;11202;50.916;4.698;2022-11-25T10:55:54;7.40;;;1.52;;
22072;SDS011;11202;50.916;4.698;2022-11-25T10:58:38;5.80;;;1.50;;
22072;SDS011;11202;50.916;4.698;2022-11-25T11:01:15;4.05;;;1.40;;
22072;SDS011;11202;50.916;4.698;2022-11-25T11:03:44;2.15;;;1.23;;
22072;SDS011;11202;50.916;4.698;2022-11-25T11:09:35;3.72;;;1.40;;
22072;SDS011;11202;50.916;4.698;2022-11-25T11:12:22;4.00;;;1.50;;
22072;SDS011;11202;50.916;4.698;2022-11-25T11:14:52;3.78;;;1.15;;
22072;SDS011;11202;50.916;4.698;2022-11-25T11:17:37;5.75;;;1.40;;
22072;SDS011;11202;50.916;4.698;2022-11-25T11:22:36;5.63;;;1.50;;
22072;SDS011;11202;50.916;4.698;2022-11-25T11:27:45;11.07;;;1.95;;
22072;SDS011;11202;50.916;4.698;2022-11-25T11:30:15;9.05;;;1.85;;
22072;SDS011;11202;50.916;4.698;2022-11-25T11:32:44;7.25;;;1.65;;
22072;SDS011;11202;50.916;4.698;2022-11-25T11:38:12;10.02;;;2.45;;
22072;SDS011;11202;50.916;4.698;2022-11-25T11:40:48;7.60;;;1.98;;
22072;SDS011;11202;50.916;4.698;2022-11-25T11:43:33;11.80;;;2.20;;
22072;SDS011;11202;50.916;4.698;2022-11-25T11:49:14;7.82;;;1.98;;
22072;SDS011;11202;50.916;4.698;2022-11-25T11:54:49;6.18;;;1.60;;
22072;SDS011;11202;50.916;4.698;2022-11-25T11:57:31;10.88;;;2.50;;
22072;SDS011;11202;50.916;4.698;2022-11-25T12:00:03;11.25;;;2.40;;
22072;SDS011;11202;50.916;4.698;2022-11-25T12:02:34;9.45;;;2.10;;
22072;SDS011;11202;50.916;4.698;2022-11-25T12:10:21;10.10;;;2.15;;
22072;SDS011;11202;50.916;4.698;2022-11-25T12:15:34;8.43;;;2.05;;
22072;SDS011;11202;50.916;4.698;2022-11-25T12:18:08;9.23;;;2.28;;
22072;SDS011;11202;50.916;4.698;2022-11-25T12:26:26;8.10;;;1.95;;
22072;SDS011;11202;50.916;4.698;2022-11-25T12:29:19;9.88;;;2.38;;
22072;SDS011;11202;50.916;4.698;2022-11-25T12:34:52;10.10;;;2.20;;
22072;SDS011;11202;50.916;4.698;2022-11-25T12:37:26;8.07;;;2.00;;
22072;SDS011;11202;50.916;4.698;2022-11-25T12:40:17;10.40;;;2.17;;
22072;SDS011;11202;50.916;4.698;2022-11-25T12:42:50;11.70;;;2.83;;
22072;SDS011;11202;50.916;4.698;2022-11-25T12:47:46;9.25;;;2.90;;
22072;SDS011;11202;50.916;4.698;2022-11-25T12:50:15;12.18;;;2.55;;
22072;SDS011;11202;50.916;4.698;2022-11-25T12:52:58;7.47;;;2.42;;
22072;SDS011;11202;50.916;4.698;2022-11-25T12:55:35;13.45;;;2.55;;
22072;SDS011;11202;50.916;4.698;2022-11-25T13:03:50;15.45;;;2.88;;
22072;SDS011;11202;50.916;4.698;2022-11-25T13:12:14;14.40;;;2.75;;
22072;SDS011;11202;50.916;4.698;2022-11-25T13:17:48;21.33;;;3.05;;
22072;SDS011;11202;50.916;4.698;2022-11-25T13:25:53;17.13;;;3.67;;
22072;SDS011;11202;50.916;4.698;2022-11-25T13:28:53;15.55;;;3.38;;
22072;SDS011;11202;50.916;4.698;2022-11-25T13:31:21;14.05;;;2.67;;
22072;SDS011;11202;50.916;4.698;2022-11-25T13:34:36;16.98;;;3.65;;
22072;SDS011;11202;50.916;4.698;2022-11-25T13:36:53;13.23;;;3.33;;
22072;SDS011;11202;50.916;4.698;2022-11-25T13:39:29;16.75;;;3.75;;
22072;SDS011;11202;50.916;4.698;2022-11-25T13:41:58;16.52;;;3.10;;
22072;SDS011;11202;50.916;4.698;2022-11-25T13:44:49;22.80;;;3.53;;
22072;SDS011;11202;50.916;4.698;2022-11-25T13:47:23;16.92;;;3.45;;
22072;SDS011;11202;50.916;4.698;2022-11-25T13:49:53;13.70;;;3.30;;
22072;SDS011;11202;50.916;4.698;2022-11-25T13:54:53;11.10;;;2.53;;
22072;SDS011;11202;50.916;4.698;2022-11-25T13:59:48;17.90;;;3.22;;
22072;SDS011;11202;50.916;4.698;2022-11-25T14:04:57;17.80;;;3.13;;
22072;SDS011;11202;50.916;4.698;2022-11-25T14:08:01;15.23;;;3.83;;
22072;SDS011;11202;50.916;4.698;2022-11-25T14:14:32;17.95;;;3.58;;
22072;SDS011;11202;50.916;4.698;2022-11-25T14:20:05;16.02;;;3.10;;
22072;SDS011;11202;50.916;4.698;2022-11-25T14:25:29;14.90;;;3.22;;
22072;SDS011;11202;50.916;4.698;2022-11-25T14:28:24;22.80;;;3.50;;
22072;SDS011;11202;50.916;4.698;2022-11-25T14:30:55;17.30;;;3.60;;
22072;SDS011;11202;50.916;4.698;2022-11-25T14:33:45;15.27;;;2.90;;
22072;SDS011;11202;50.916;4.698;2022-11-25T14:36:26;18.27;;;3.53;;
22072;SDS011;11202;50.916;4.698;2022-11-25T14:39:03;19.73;;;3.10;;
22072;SDS011;11202;50.916;4.698;2022-11-25T14:41:37;12.70;;;2.88;;
22072;SDS011;11202;50.916;4.698;2022-11-25T14:44:12;15.20;;;3.50;;
22072;SDS011;11202;50.916;4.698;2022-11-25T14:46:53;13.48;;;3.38;;
22072;SDS011;11202;50.916;4.698;2022-11-25T14:49:22;19.38;;;3.45;;
22072;SDS011;11202;50.916;4.698;2022-11-25T14:51:48;16.20;;;3.60;;
22072;SDS011;11202;50.916;4.698;2022-11-25T14:54:18;20.30;;;3.72;;
22072;SDS011;11202;50.916;4.698;2022-11-25T14:56:46;13.75;;;3.10;;
22072;SDS011;11202;50.916;4.698;2022-11-25T14:59:13;21.10;;;3.35;;
22072;SDS011;11202;50.916;4.698;2022-11-25T15:01:49;15.80;;;3.38;;
22072;SDS011;11202;50.916;4.698;2022-11-25T15:04:21;16.83;;;3.25;;
22072;SDS011;11202;50.916;4.698;2022-11-25T15:06:52;18.95;;;3.42;;
22072;SDS011;11202;50.916;4.698;2022-11-25T15:09:28;15.57;;;3.47;;
22072;SDS011;11202;50.916;4.698;2022-11-25T15:14:32;13.82;;;3.63;;
22072;SDS011;11202;50.916;4.698;2022-11-25T15:17:00;19.20;;;3.88;;
22072;SDS011;11202;50.916;4.698;2022-11-25T15:19:32;14.88;;;3.58;;
22072;SDS011;11202;50.916;4.698;2022-11-25T15:22:02;22.92;;;4.95;;
22072;SDS011;11202;50.916;4.698;2022-11-25T15:26:57;16.15;;;3.72;;
22072;SDS011;11202;50.916;4.698;2022-11-25T15:29:28;18.35;;;3.67;;
22072;SDS011;11202;50.916;4.698;2022-11-25T15:31:55;22.73;;;3.40;;
22072;SDS011;11202;50.916;4.698;2022-11-25T15:34:22;16.17;;;3.72;;
22072;SDS011;11202;50.916;4.698;2022-11-25T15:36:48;14.45;;;3.60;;
22072;SDS011;11202;50.916;4.698;2022-11-25T15:41:53;18.67;;;3.80;;
22072;SDS011;11202;50.916;4.698;2022-11-25T15:44:30;16.70;;;3.90;;
22072;SDS011;11202;50.916;4.698;2022-11-25T15:47:32;15.85;;;3.70;;
22072;SDS011;11202;50.916;4.698;2022-11-25T15:50:03;24.23;;;4.22;;
22072;SDS011;11202;50.916;4.698;2022-11-25T15:52:49;17.88;;;3.90;;
22072;SDS011;11202;50.916;4.698;2022-11-25T15:55:27;21.33;;;4.47;;
22072;SDS011;11202;50.916;4.698;2022-11-25T15:58:20;16.50;;;4.53;;
22072;SDS011;11202;50.916;4.698;2022-11-25T16:03:41;16.60;;;4.00;;
22072;SDS011;11202;50.916;4.698;2022-11-25T16:06:17;25.73;;;4.22;;
22072;SDS011;11202;50.916;4.698;2022-11-25T16:08:50;20.90;;;4.50;;
22072;SDS011;11202;50.916;4.698;2022-11-25T16:11:21;18.67;;;4.55;;
22072;SDS011;11202;50.916;4.698;2022-11-25T16:13:49;19.70;;;4.85;;
22072;SDS011;11202;50.916;4.698;2022-11-25T16:22:12;19.33;;;4.32;;
22072;SDS011;11202;50.916;4.698;2022-11-25T16:24:24;24.75;;;4.65;;
22072;SDS011;11202;50.916;4.698;2022-11-25T16:27:04;16.35;;;4.53;;
22072;SDS011;11202;50.916;4.698;2022-11-25T16:32:15;18.67;;;4.93;;
22072;SDS011;11202;50.916;4.698;2022-11-25T16:34:43;16.77;;;4.50;;
22072;SDS011;11202;50.916;4.698;2022-11-25T16:37:09;15.48;;;4.43;;
22072;SDS011;11202;50.916;4.698;2022-11-25T16:39:35;24.65;;;4.82;;
22072;SDS011;11202;50.916;4.698;2022-11-25T16:42:03;20.13;;;5.20;;
22072;SDS011;11202;50.916;4.698;2022-11-25T16:44:30;33.25;;;5.78;;
22072;SDS011;11202;50.916;4.698;2022-11-25T16:46:58;30.40;;;5.70;;